Nearby METAR Reports

 

PAEN - Kenai, Alaska, USA
Distance from station: ESE 2mi, 4km
Updated: Sun, 21-Apr-2019 2:23am AKDT
unable to load PAEN data RC=
unable to load PAEN data RC=
 
PASX - Soldotna, Alaska, USA
Distance from station: SE 12mi, 19km
Updated: Sun, 21-Apr-2019 1:56am AKDT
Light snow, Mostly cloudy
Light snow, Mostly cloudy
 Wind from NNE
Wind: NNE 9 mph , 15 km/h
Temperature: 34°F , 1°C
Wind Chill: 27°F , -3°C
Dew Point: 30°F , -1°C
Humidity: 87%
Barometer: 29.52 inHg , 999.7 hPa
Summary: Light Snow
Clouds: Mostly cloudy
Visibility: 9 miles , 14 km
Cloud details: Few Clouds 1400 ft
Mostly cloudy 3700 ft
2019/04/21 09:56 PASX 210956Z AUTO 02008KT 9SM -SN FEW014 BKN037 01/M01 A2952 RMK AO2 SLP006 P0000 T00111011 FZRANO
 
PANC - Anchorage Intl, Alaska, USA
Distance from station: NE 59mi, 96km
Updated: Sun, 21-Apr-2019 1:53am AKDT
Mostly cloudy
Mostly cloudy
 Wind from N
Wind: N 8 mph , 13 km/h
Temperature: 36°F , 2°C
Wind Chill: 30°F , -1°C
Dew Point: 28°F , -2°C
Humidity: 75%
Barometer: 29.52 inHg , 999.7 hPa
Clouds: Mostly cloudy
Visibility: 10 miles , 16 km
Cloud details: Mostly cloudy 6000 ft
Mostly cloudy 8500 ft
2019/04/21 09:53 PANC 210953Z 36007KT 10SM BKN060 BKN085 02/M02 A2952 RMK AO2 SLP999 T00171017 VISNO N $
PALH - Anchorage/Lake H, Alaska, USA
Distance from station: NE 61mi, 99km
Updated: Sun, 21-Apr-2019 1:53am AKDT
Mostly cloudy
Mostly cloudy
 Wind from N
Wind: N 10 mph , 17 km/h
Temperature: 34°F , 1°C
Wind Chill: 26°F , -3°C
Dew Point: 28°F , -2°C
Humidity: 81%
Barometer: 29.53 inHg , 1000 hPa
Clouds: Mostly cloudy
Visibility: 10 miles , 16 km
Cloud details: Mostly cloudy 7000 ft
2019/04/21 09:53 PALH 210953Z 01009KT 10SM BKN070 01/M02 A2953 RMK AO2 SLP000 T00111022
 
PAHO - Homer, Alaska, USA
Distance from station: S 66mi, 106km
Updated: Sun, 21-Apr-2019 1:53am AKDT
Overcast
Overcast
 Wind from calm
Wind: Calm
Temperature: 34°F , 1°C
Dew Point: 34°F , 1°C
Humidity: 100%
Barometer: 29.45 inHg , 997.3 hPa
Clouds: Overcast
Visibility: 10 miles , 16 km
Cloud details: Overcast 4400 ft
2019/04/21 09:53 PAHO 210953Z AUTO 00000KT 10SM OVC044 01/01 A2945 RMK AO2 SLP973 T00110006 TSNO
PAMR - Anchorage/Merril, Alaska, USA
Distance from station: NE 66mi, 106km
Updated: Sun, 21-Apr-2019 1:53am AKDT
Overcast
Overcast
 Wind from N
Wind: N 9 mph , 15 km/h
Temperature: 36°F , 2°C
Wind Chill: 29°F , -2°C
Dew Point: 27°F , -3°C
Humidity: 70%
Barometer: 29.52 inHg , 999.7 hPa
Clouds: Overcast
Visibility: 10 miles , 16 km
Cloud details: Overcast 7000 ft
2019/04/21 09:53 PAMR 210953Z 35008KT 10SM OVC070 02/M03 A2952 RMK AO2 SLP998 T00171028
 
PAED - Elmendorf Afb, Alaska, USA
Distance from station: NE 69mi, 110km
Updated: Sun, 21-Apr-2019 1:56am AKDT
Mostly cloudy
Mostly cloudy
 Wind from NNW
Wind: NNW 6 mph , 9 km/h
Temperature: 34°F , 1°C
Wind Chill: 29°F , -2°C
Dew Point: 28°F , -2°C
Humidity: 81%
Barometer: 29.51 inHg , 999.3 hPa
Clouds: Mostly cloudy
Visibility: 10 miles , 16 km
Cloud details: Mostly cloudy 7000 ft
2019/04/21 09:56 PAED 210956Z 34005KT 10SM BKN070 01/M02 A2951 RMK AO2A SLP990 T00131023 $
PAWD - Seward, Alaska, USA
Distance from station: ESE 71mi, 115km
Updated: Sun, 21-Apr-2019 1:53am AKDT
Overcast
Overcast
 Wind from N
Wind: N 7 mph , 11 km/h
Temperature: 37°F , 3°C
Wind Chill: 32°F , 0°C
Dew Point: 34°F , 1°C
Humidity: 87%
Barometer: 29.47 inHg , 998 hPa
Clouds: Overcast
Visibility: 10 miles , 16 km
Cloud details: Overcast 4000 ft
2019/04/21 09:53 PAWD 210953Z AUTO 36006KT 10SM OVC040 03/01 A2947 RMK AO2 SLP979 T00330011 TSNO $
 
PASC - Deadhorse, Alaska, USA
Distance from station: ENE 670mi, 1078km
Updated: Sun, 21-Apr-2019 2:00am AKDT
Overcast
Overcast
 Wind from WNW
Wind: WNW 5 mph , 7 km/h
Temperature: 1°F , -17°C
Wind Chill: -9°F , -23°C
Dew Point: -2°F , -19°C
Humidity: 85%
Barometer: 29.87 inHg , 1011.5 hPa
Clouds: Overcast
Visibility: 10 miles , 16 km
Cloud details: Overcast 900 ft
2019/04/21 10:00 PASC 211000Z 29004KT 10SM OVC009 M17/M19 A2987 RMK AO2 T11671194
PAAD - Point Thomson, Alaska, USA
Distance from station: ENE 680mi, 1094km
Updated: Sun, 21-Apr-2019 2:15am AKDT
Overcast
Overcast
 Wind from WSW
Wind: WSW 7 mph , 11 km/h
Temperature: 7°F , -14°C
Wind Chill: -5°F , -21°C
Dew Point: 3°F , -16°C
Humidity: 85%
Barometer: 29.87 inHg , 1011.5 hPa
Clouds: Overcast
Visibility: 10 miles , 16 km
Cloud details: Mostly cloudy 800 ft
Overcast 1300 ft
2019/04/21 10:15 PAAD 211015Z AUTO 25006KT 10SM BKN008 OVC013 M14/M16 A2987 RMK AO2 T11401160


kenaipeople.com website

Dans Automotive

Lower Peninsula Power Sports

Freddies RoadHouse

Alaska Weather Net